createdAt,value
2019-02-18T00:02:00.277Z,-0.06
2019-02-18T00:04:30.539Z,-0.09
2019-02-18T00:07:00.820Z,-0.10
2019-02-18T00:09:31.075Z,-0.12
2019-02-18T00:12:01.351Z,-0.17
2019-02-18T00:14:33.151Z,-0.13
2019-02-18T00:17:03.507Z,-0.15
2019-02-18T00:19:33.770Z,-0.27
2019-02-18T00:22:04.046Z,-0.21
2019-02-18T00:24:34.307Z,-0.22
2019-02-18T00:27:04.851Z,-0.25
2019-02-18T00:29:35.115Z,-0.30
2019-02-18T00:32:05.394Z,-0.30
2019-02-18T00:34:35.654Z,-0.31
2019-02-18T00:37:05.934Z,-0.30
2019-02-18T00:39:37.709Z,-0.26
2019-02-18T00:42:07.992Z,-0.35
2019-02-18T00:44:38.253Z,-0.40
2019-02-18T00:47:08.534Z,-0.47
2019-02-18T00:49:38.796Z,-0.43
2019-02-18T00:52:09.077Z,-0.49
2019-02-18T00:54:39.325Z,-0.52
2019-02-18T00:57:09.606Z,-0.45
2019-02-18T00:59:39.864Z,-0.41
2019-02-18T01:02:10.139Z,-0.35
2019-02-18T01:04:40.415Z,-0.33
2019-02-18T01:07:11.488Z,-0.32
2019-02-18T01:09:41.815Z,-0.32
2019-02-18T01:12:12.091Z,-0.32
2019-02-18T01:14:42.348Z,-0.34
2019-02-18T01:17:12.624Z,-0.31
2019-02-18T01:19:44.625Z,-0.35
2019-02-18T01:22:16.706Z,-0.40
2019-02-18T01:24:48.483Z,-0.51
2019-02-18T01:27:20.284Z,-0.54
2019-02-18T01:29:52.066Z,-0.60
2019-02-18T01:32:23.864Z,-0.66
2019-02-18T01:34:55.641Z,-0.65
2019-02-18T01:40:09.076Z,-0.58
2019-02-18T01:42:39.357Z,-0.65
2019-02-18T01:45:12.874Z,-0.65
2019-02-18T01:47:43.149Z,-0.62
2019-02-18T01:50:14.854Z,-0.57
2019-02-18T01:52:45.128Z,-0.53
2019-02-18T01:55:15.389Z,-0.51
2019-02-18T01:57:45.667Z,-0.51
2019-02-18T02:00:16.411Z,-0.53
2019-02-18T02:02:46.676Z,-0.58
2019-02-18T02:05:17.410Z,-0.57
2019-02-18T02:07:55.981Z,-0.58
2019-02-18T02:10:20.736Z,-0.59
2019-02-18T02:12:51.383Z,-0.61
2019-02-18T02:15:24.898Z,-0.65
2019-02-18T02:17:55.175Z,-0.68
2019-02-18T02:20:25.433Z,-0.67
2019-02-18T02:22:55.716Z,-0.64
2019-02-18T02:25:25.971Z,-0.66
2019-02-18T02:27:57.854Z,-0.63
2019-02-18T02:30:28.113Z,-0.64
2019-02-18T02:32:58.394Z,-0.63
2019-02-18T02:35:28.651Z,-0.64
2019-02-18T02:38:07.295Z,-0.68
2019-02-18T02:40:30.884Z,-0.73
2019-02-18T02:43:01.166Z,-0.77
2019-02-18T02:45:31.423Z,-0.84
2019-02-18T02:48:01.699Z,-0.84
2019-02-18T02:50:31.956Z,-0.86
2019-02-18T02:53:02.231Z,-0.88
2019-02-18T02:55:32.490Z,-0.79
2019-02-18T02:58:02.768Z,-0.73
2019-02-18T03:00:33.031Z,-0.70
2019-02-18T03:03:03.308Z,-0.73
2019-02-18T03:05:33.567Z,-0.79
2019-02-18T03:08:04.617Z,-0.76
2019-02-18T03:10:34.876Z,-0.74
2019-02-18T03:13:05.149Z,-0.75
2019-02-18T03:15:35.416Z,-0.74
2019-02-18T03:18:05.685Z,-0.70
2019-02-18T03:20:35.942Z,-0.64
2019-02-18T03:23:06.232Z,-0.66
2019-02-18T03:25:36.490Z,-0.68
2019-02-18T03:28:12.872Z,-0.83
2019-02-18T03:30:49.874Z,-0.92
2019-02-18T03:33:44.003Z,-0.98
2019-02-18T03:36:14.253Z,-1.03
2019-02-18T03:38:44.531Z,-1.01
2019-02-18T03:41:14.786Z,-1.03
2019-02-18T03:43:45.063Z,-1.00
2019-02-18T03:46:15.322Z,-0.97
2019-02-18T03:48:45.605Z,-0.98
2019-02-18T03:51:15.861Z,-0.96
2019-02-18T03:53:46.140Z,-0.91
2019-02-18T03:56:16.409Z,-0.91
2019-02-18T03:58:46.695Z,-0.84
2019-02-18T04:01:16.948Z,-0.83
2019-02-18T04:03:47.232Z,-0.79
2019-02-18T04:06:17.475Z,-0.79
2019-02-18T04:08:48.606Z,-0.74
2019-02-18T04:11:18.866Z,-0.80
2019-02-18T04:13:49.150Z,-0.81
2019-02-18T04:16:19.407Z,-0.79
2019-02-18T04:18:50.151Z,-0.79
2019-02-18T04:21:20.422Z,-0.82
2019-02-18T04:23:50.698Z,-0.77
2019-02-18T04:26:20.961Z,-0.77
2019-02-18T04:28:51.234Z,-0.62
2019-02-18T04:31:21.520Z,-0.69
2019-02-18T04:33:51.784Z,-0.63
2019-02-18T04:36:22.043Z,-0.63
2019-02-18T04:38:54.359Z,-0.59
2019-02-18T04:41:24.296Z,-0.69
2019-02-18T04:43:54.567Z,-0.61
2019-02-18T04:46:24.826Z,-0.62
2019-02-18T04:48:55.188Z,-0.66
2019-02-18T04:51:25.443Z,-0.57
2019-02-18T04:53:55.724Z,-0.53
2019-02-18T04:56:25.991Z,-0.51
2019-02-18T04:58:56.275Z,-0.60
2019-02-18T05:01:26.543Z,-0.69
2019-02-18T05:03:56.829Z,-0.77
2019-02-18T05:06:27.102Z,-0.99
2019-02-18T05:09:05.391Z,-1.12
2019-02-18T05:11:30.207Z,-1.26
2019-02-18T05:14:00.491Z,-1.43
2019-02-18T05:16:30.785Z,-1.36
2019-02-18T05:19:01.066Z,-1.38
2019-02-18T05:21:31.327Z,-1.38
2019-02-18T05:24:01.609Z,-1.45
2019-02-18T05:26:31.859Z,-1.47
2019-02-18T05:29:02.193Z,-1.53
2019-02-18T05:31:32.484Z,-1.57
2019-02-18T05:34:02.774Z,-1.51
2019-02-18T05:36:33.035Z,-1.45
2019-02-18T05:39:04.763Z,-1.41
2019-02-18T05:41:35.023Z,-1.40
2019-02-18T05:44:05.370Z,-1.35
2019-02-18T05:46:35.623Z,-1.28
2019-02-18T05:49:05.904Z,-1.21
2019-02-18T05:51:36.169Z,-1.22
2019-02-18T05:54:06.436Z,-1.15
2019-02-18T05:56:36.709Z,-1.13
2019-02-18T05:59:06.986Z,-1.19
2019-02-18T06:01:37.240Z,-1.13
2019-02-18T06:04:07.523Z,-1.11
2019-02-18T06:06:37.780Z,-1.06
2019-02-18T06:09:09.250Z,-1.00
2019-02-18T06:11:39.481Z,-0.96
2019-02-18T06:14:09.901Z,-0.91
2019-02-18T06:16:40.426Z,-0.87
2019-02-18T06:19:10.754Z,-0.81
2019-02-18T06:21:42.417Z,-0.78
2019-02-18T06:24:12.701Z,-0.76
2019-02-18T06:26:42.961Z,-0.59
2019-02-18T06:29:13.250Z,-0.44
2019-02-18T06:31:43.521Z,-0.20
2019-02-18T06:34:13.774Z,-0.11
2019-02-18T06:36:44.033Z,0.04
2019-02-18T06:39:14.371Z,0.37
2019-02-18T06:41:44.624Z,0.81
2019-02-18T06:44:14.983Z,1.29
2019-02-18T06:46:46.876Z,1.67
2019-02-18T06:49:17.135Z,2.29
2019-02-18T06:51:47.390Z,2.84
2019-02-18T06:54:17.651Z,3.40
2019-02-18T06:56:55.474Z,4.28
2019-02-18T06:59:27.363Z,4.83
2019-02-18T07:01:59.533Z,5.32
2019-02-18T07:04:34.549Z,5.80
2019-02-18T07:07:09.274Z,6.32
2019-02-18T07:09:50.758Z,6.72
2019-02-18T07:12:18.463Z,7.18
2019-02-18T07:14:48.725Z,7.54
2019-02-18T07:17:18.995Z,8.03
2019-02-18T07:19:49.253Z,8.48
2019-02-18T07:22:19.517Z,8.94
2019-02-18T07:24:49.775Z,9.53
2019-02-18T07:27:20.092Z,10.01
2019-02-18T07:29:51.262Z,10.19
2019-02-18T07:32:21.531Z,10.53
2019-02-18T07:34:53.302Z,10.97
2019-02-18T07:37:23.772Z,11.14
2019-02-18T07:40:01.076Z,11.44
2019-02-18T07:42:26.563Z,11.75
2019-02-18T07:44:56.831Z,11.98
2019-02-18T07:47:27.456Z,12.39
2019-02-18T07:49:57.721Z,12.32
2019-02-18T07:52:28.174Z,12.59
2019-02-18T07:54:58.437Z,13.20
2019-02-18T07:57:28.709Z,13.58
2019-02-18T07:59:58.971Z,13.77
2019-02-18T08:02:29.256Z,14.10
2019-02-18T08:05:02.038Z,14.36
2019-02-18T08:07:32.088Z,14.45
2019-02-18T08:10:12.159Z,14.27
2019-02-18T08:12:38.542Z,14.34
2019-02-18T08:15:11.066Z,14.30
2019-02-18T08:17:44.064Z,14.34
2019-02-18T08:20:17.443Z,14.60
2019-02-18T08:22:50.386Z,14.57
2019-02-18T08:25:22.399Z,14.75
2019-02-18T08:27:52.794Z,14.92
2019-02-18T08:30:25.151Z,14.15
2019-02-18T08:32:56.621Z,14.47
2019-02-18T08:35:28.053Z,14.81
2019-02-18T08:37:59.496Z,14.73
2019-02-18T08:40:33.000Z,14.66
2019-02-18T08:43:06.764Z,14.41
2019-02-18T08:45:41.517Z,14.54
2019-02-18T08:48:14.480Z,14.68
2019-02-18T08:50:50.404Z,14.68
2019-02-18T08:53:22.362Z,14.03
2019-02-18T08:55:52.630Z,14.61
2019-02-18T08:58:23.468Z,14.21
2019-02-18T09:01:02.287Z,12.73
2019-02-18T09:03:25.731Z,11.39
2019-02-18T09:06:03.272Z,10.70
2019-02-18T09:08:35.666Z,10.21
2019-02-18T09:11:07.112Z,9.87
2019-02-18T09:13:37.990Z,9.49
2019-02-18T09:16:12.354Z,9.43
2019-02-18T09:18:50.285Z,9.43
2019-02-18T09:21:22.139Z,9.56
2019-02-18T09:23:54.048Z,9.55
2019-02-18T09:26:24.573Z,9.50
2019-02-18T09:28:54.829Z,9.54
2019-02-18T09:31:26.727Z,9.75
2019-02-18T09:33:57.261Z,9.92
2019-02-18T09:36:27.535Z,10.11
2019-02-18T09:38:57.790Z,9.98
2019-02-18T09:41:28.055Z,9.99
2019-02-18T09:44:02.201Z,10.41
2019-02-18T09:46:32.475Z,10.36
2019-02-18T09:49:03.663Z,10.61
2019-02-18T09:51:34.019Z,10.61
2019-02-18T09:54:05.642Z,10.58
2019-02-18T09:56:36.975Z,10.63
2019-02-18T09:59:08.672Z,10.79
2019-02-18T10:01:38.933Z,10.81
2019-02-18T10:04:09.482Z,10.92
2019-02-18T10:06:39.739Z,11.04
2019-02-18T10:09:09.995Z,11.08
2019-02-18T10:11:42.534Z,11.16
2019-02-18T10:14:13.721Z,11.07
2019-02-18T10:16:45.320Z,11.02
2019-02-18T10:19:19.239Z,11.09
2019-02-18T10:21:57.667Z,11.00
2019-02-18T10:24:33.072Z,10.84
2019-02-18T10:27:09.356Z,11.17
2019-02-18T10:29:40.872Z,11.32
2019-02-18T10:32:14.979Z,11.48
2019-02-18T10:34:48.587Z,11.63
2019-02-18T10:37:20.113Z,11.47
2019-02-18T10:39:50.363Z,11.54
2019-02-18T10:42:21.946Z,11.76
2019-02-18T10:44:52.325Z,11.91
2019-02-18T10:47:22.609Z,11.79
2019-02-18T10:49:52.888Z,11.88
2019-02-18T10:52:23.158Z,11.89
2019-02-18T10:54:53.442Z,11.84
2019-02-18T10:57:23.717Z,12.08
2019-02-18T10:59:54.588Z,12.20
2019-02-18T11:02:26.432Z,12.13
2019-02-18T11:04:57.681Z,12.08
2019-02-18T11:07:28.013Z,12.05
2019-02-18T11:09:58.290Z,11.72
2019-02-18T11:12:28.567Z,11.82
2019-02-18T11:15:00.507Z,11.89
2019-02-18T11:17:38.679Z,12.11
2019-02-18T11:20:02.763Z,12.37
2019-02-18T11:22:34.319Z,12.41
2019-02-18T11:25:10.393Z,12.64
2019-02-18T11:27:41.157Z,12.43
2019-02-18T11:30:26.419Z,12.42
2019-02-18T11:32:57.869Z,12.55
2019-02-18T11:35:28.395Z,12.59
2019-02-18T11:38:02.334Z,12.78
2019-02-18T11:40:33.759Z,12.92
2019-02-18T11:43:04.315Z,12.75
2019-02-18T11:45:35.742Z,12.75
2019-02-18T11:48:07.288Z,12.93
2019-02-18T11:50:39.473Z,12.98
2019-02-18T11:53:11.351Z,13.07
2019-02-18T11:55:42.800Z,13.25
2019-02-18T11:58:13.155Z,13.36
2019-02-18T12:00:44.149Z,13.46
2019-02-18T12:03:16.382Z,13.31
2019-02-18T12:05:47.996Z,13.37
2019-02-18T12:08:18.251Z,13.03
2019-02-18T12:10:48.730Z,13.22
2019-02-18T12:13:20.193Z,13.25
2019-02-18T12:15:51.934Z,13.35
2019-02-18T12:18:23.384Z,13.29
2019-02-18T12:20:55.759Z,13.25
2019-02-18T12:23:27.229Z,13.15
2019-02-18T12:26:02.693Z,13.37
2019-02-18T12:28:38.094Z,13.07
2019-02-18T12:31:08.927Z,13.17
2019-02-18T12:33:40.385Z,13.27
2019-02-18T12:36:11.830Z,13.09
2019-02-18T12:38:42.077Z,13.16
2019-02-18T12:41:13.806Z,13.17
2019-02-18T12:43:44.652Z,13.31
2019-02-18T12:46:16.059Z,13.41
2019-02-18T12:48:46.651Z,13.51
2019-02-18T12:51:18.091Z,13.60
2019-02-18T12:53:50.885Z,13.57
2019-02-18T12:56:27.338Z,13.38
2019-02-18T12:58:58.608Z,13.42
2019-02-18T13:01:31.587Z,13.42
2019-02-18T13:04:03.043Z,13.26
2019-02-18T13:06:38.766Z,13.28
2019-02-18T13:09:10.223Z,13.41
2019-02-18T13:11:41.709Z,13.50
2019-02-18T13:14:13.146Z,13.38
2019-02-18T13:16:44.292Z,13.35
2019-02-18T13:19:14.577Z,13.38
2019-02-18T13:21:44.825Z,13.54
2019-02-18T13:24:15.084Z,13.59
2019-02-18T13:26:48.359Z,13.53
2019-02-18T13:29:19.712Z,13.57
2019-02-18T13:31:49.981Z,13.55
2019-02-18T13:34:20.913Z,13.59
2019-02-18T13:36:51.171Z,13.45
2019-02-18T13:39:22.221Z,13.43
2019-02-18T13:41:52.633Z,13.35
2019-02-18T13:44:24.158Z,13.49
2019-02-18T13:46:54.416Z,13.51
2019-02-18T13:49:24.983Z,13.53
2019-02-18T13:51:56.743Z,13.53
2019-02-18T13:54:27.148Z,13.56
2019-02-18T13:56:57.417Z,13.47
2019-02-18T13:59:27.672Z,13.54
2019-02-18T14:01:58.246Z,13.55
2019-02-18T14:04:28.506Z,13.49
2019-02-18T14:06:58.859Z,13.50
2019-02-18T14:09:29.115Z,13.44
2019-02-18T14:11:59.380Z,13.38
2019-02-18T14:14:29.664Z,13.39
2019-02-18T14:17:00.387Z,13.31
2019-02-18T14:19:32.227Z,13.30
2019-02-18T14:22:02.660Z,13.26
2019-02-18T14:24:32.932Z,13.23
2019-02-18T14:27:03.200Z,13.23
2019-02-18T14:29:33.466Z,13.15
2019-02-18T14:32:03.874Z,13.13
2019-02-18T14:34:34.915Z,13.09
2019-02-18T14:37:05.222Z,13.08
2019-02-18T14:39:35.478Z,13.08
2019-02-18T14:42:05.735Z,13.00
2019-02-18T14:44:35.990Z,12.97
2019-02-18T14:47:07.205Z,12.95
2019-02-18T14:49:37.855Z,12.91
2019-02-18T14:52:09.045Z,12.90
2019-02-18T14:54:41.132Z,12.81
2019-02-18T14:57:11.351Z,12.76
2019-02-18T14:59:42.151Z,12.76
2019-02-18T15:02:13.642Z,12.67
2019-02-18T15:04:44.005Z,12.66
2019-02-18T15:07:14.469Z,12.67
2019-02-18T15:09:44.738Z,12.52
2019-02-18T15:12:15.280Z,12.48
2019-02-18T15:14:45.919Z,12.38
2019-02-18T15:17:16.703Z,12.32
2019-02-18T15:19:47.123Z,12.27
2019-02-18T15:22:17.407Z,12.17
2019-02-18T15:24:48.042Z,12.07
2019-02-18T15:27:18.704Z,12.00
2019-02-18T15:29:49.008Z,11.90
2019-02-18T15:32:19.646Z,11.80
2019-02-18T15:34:49.911Z,11.71
2019-02-18T15:37:21.809Z,11.59
2019-02-18T15:39:52.453Z,11.47
2019-02-18T15:42:23.131Z,11.36
2019-02-18T15:44:53.413Z,11.27
2019-02-18T15:47:23.664Z,11.12
2019-02-18T15:49:53.923Z,11.03
2019-02-18T15:52:24.202Z,10.93
2019-02-18T15:54:54.460Z,10.79
2019-02-18T15:57:24.759Z,10.63
2019-02-18T15:59:55.046Z,10.46
2019-02-18T16:02:25.355Z,10.29
2019-02-18T16:04:55.761Z,10.11
2019-02-18T16:07:27.718Z,9.91
2019-02-18T16:09:57.986Z,9.68
2019-02-18T16:12:30.056Z,9.44
2019-02-18T16:15:00.481Z,9.21
2019-02-18T16:17:30.762Z,8.97
2019-02-18T16:20:01.862Z,8.77
2019-02-18T16:22:32.266Z,8.54
2019-02-18T16:25:02.606Z,8.41
2019-02-18T16:27:32.866Z,8.17
2019-02-18T16:30:03.510Z,7.94
2019-02-18T16:32:33.784Z,7.76
2019-02-18T16:35:05.215Z,7.59
2019-02-18T16:37:35.872Z,7.46
2019-02-18T16:40:11.740Z,7.32
2019-02-18T16:42:42.164Z,7.20
2019-02-18T16:45:14.938Z,7.04
2019-02-18T16:47:45.216Z,6.87
2019-02-18T16:50:15.630Z,6.70
2019-02-18T16:52:45.901Z,6.54
2019-02-18T16:55:16.456Z,6.41
2019-02-18T16:57:46.739Z,6.27
2019-02-18T17:00:28.902Z,6.13
2019-02-18T17:02:59.181Z,6.00
2019-02-18T17:05:29.516Z,5.85
2019-02-18T17:07:59.790Z,5.73
2019-02-18T17:10:30.635Z,5.65
2019-02-18T17:13:07.964Z,5.53
2019-02-18T17:15:33.682Z,5.44
2019-02-18T17:18:04.967Z,5.34
2019-02-18T17:20:35.290Z,5.18
2019-02-18T17:23:05.543Z,5.10
2019-02-18T17:25:36.883Z,4.99
2019-02-18T17:28:08.406Z,4.90
2019-02-18T17:30:40.308Z,4.81
2019-02-18T17:33:10.584Z,4.71
2019-02-18T17:35:42.077Z,4.61
2019-02-18T17:38:12.573Z,4.52
2019-02-18T17:40:42.866Z,4.43
2019-02-18T17:43:16.481Z,4.41
2019-02-18T17:45:46.159Z,4.35
2019-02-18T17:48:16.496Z,4.25
2019-02-18T17:50:49.499Z,4.18
2019-02-18T17:53:19.791Z,4.10
2019-02-18T17:55:50.088Z,4.04
2019-02-18T17:58:20.483Z,3.95
2019-02-18T18:00:52.392Z,3.91
2019-02-18T18:03:22.682Z,3.87
2019-02-18T18:05:53.055Z,3.80
2019-02-18T18:08:23.313Z,3.75
2019-02-18T18:10:54.031Z,3.70
2019-02-18T18:13:25.348Z,3.63
2019-02-18T18:15:58.910Z,3.57
2019-02-18T18:18:33.544Z,3.54
2019-02-18T18:21:06.834Z,3.44
2019-02-18T18:23:38.178Z,3.37
2019-02-18T18:26:08.650Z,3.29
2019-02-18T18:28:39.202Z,3.18
2019-02-18T18:31:09.679Z,3.07
2019-02-18T18:33:41.109Z,3.02
2019-02-18T18:36:12.576Z,2.98
2019-02-18T18:38:42.847Z,2.98
2019-02-18T18:41:17.454Z,2.98
2019-02-18T18:43:47.990Z,2.93
2019-02-18T18:46:20.573Z,2.86
2019-02-18T18:48:56.823Z,2.82
2019-02-18T18:51:35.441Z,2.79
2019-02-18T18:54:05.709Z,2.77
2019-02-18T18:56:37.739Z,2.74
2019-02-18T18:59:09.845Z,2.73
2019-02-18T19:01:42.783Z,2.69
2019-02-18T19:04:13.977Z,2.62
2019-02-18T19:06:44.410Z,2.61
2019-02-18T19:09:15.880Z,2.55
2019-02-18T19:11:47.333Z,2.48
2019-02-18T19:14:18.805Z,2.43
2019-02-18T19:16:50.345Z,2.40
2019-02-18T19:19:20.775Z,2.34
2019-02-18T19:21:51.119Z,2.29
2019-02-18T19:24:21.395Z,2.26
2019-02-18T19:26:51.823Z,2.21
2019-02-18T19:29:22.540Z,2.16
2019-02-18T19:31:52.964Z,2.05
2019-02-18T19:34:23.399Z,2.00
2019-02-18T19:36:53.894Z,1.87
2019-02-18T19:39:26.481Z,1.94
2019-02-18T19:42:00.488Z,1.91
2019-02-18T19:44:31.030Z,1.88
2019-02-18T19:47:01.504Z,1.84
2019-02-18T19:49:32.453Z,1.80
2019-02-18T19:52:06.853Z,1.75
2019-02-18T19:54:51.571Z,1.70
2019-02-18T19:57:21.845Z,1.65
2019-02-18T19:59:52.252Z,1.59
2019-02-18T20:02:23.739Z,1.64
2019-02-18T20:04:54.588Z,1.60
2019-02-18T20:07:24.911Z,1.60
2019-02-18T20:09:58.769Z,1.41
2019-02-18T20:12:31.042Z,1.46
2019-02-18T20:15:01.350Z,1.48
2019-02-18T20:17:34.310Z,1.43
2019-02-18T20:20:10.892Z,1.41
2019-02-18T20:22:43.109Z,1.33
2019-02-18T20:25:18.067Z,1.33
2019-02-18T20:28:07.755Z,1.31
2019-02-18T20:30:38.300Z,1.26
2019-02-18T20:33:08.798Z,1.19
2019-02-18T20:35:39.311Z,1.19
2019-02-18T20:38:19.069Z,1.16
2019-02-18T20:40:50.829Z,1.16
2019-02-18T20:43:23.759Z,0.99
2019-02-18T20:45:57.901Z,1.09
2019-02-18T20:48:32.283Z,1.10
2019-02-18T20:51:04.018Z,1.09
2019-02-18T20:53:36.694Z,0.93
2019-02-18T20:56:08.306Z,0.93
2019-02-18T20:58:39.048Z,1.01
2019-02-18T21:01:09.520Z,0.93
2019-02-18T21:03:40.951Z,0.92
2019-02-18T21:06:16.322Z,0.92
2019-02-18T21:08:56.009Z,0.90
2019-02-18T21:11:29.401Z,0.81
2019-02-18T21:14:02.753Z,0.81
2019-02-18T21:16:46.064Z,0.78
2019-02-18T21:19:16.987Z,0.77
2019-02-18T21:21:52.510Z,0.77
2019-02-18T21:24:32.535Z,0.67
2019-02-18T21:27:04.786Z,0.66
2019-02-18T21:29:35.096Z,0.66
2019-02-18T21:32:06.543Z,0.61
2019-02-18T21:34:38.010Z,0.60
2019-02-18T21:37:12.318Z,0.56
2019-02-18T21:39:42.738Z,0.59
2019-02-18T21:42:14.187Z,0.61
2019-02-18T21:44:45.667Z,0.57
2019-02-18T21:47:18.723Z,0.57
2019-02-18T21:49:53.597Z,0.54
2019-02-18T21:52:27.078Z,0.51
2019-02-18T21:54:59.153Z,0.40
2019-02-18T21:57:36.385Z,0.40
2019-02-18T22:00:16.555Z,0.40
2019-02-18T22:02:52.812Z,0.27
2019-02-18T22:05:25.715Z,0.26
2019-02-18T22:08:00.354Z,0.17
2019-02-18T22:10:37.342Z,0.19
2019-02-18T22:13:10.958Z,0.07
2019-02-18T22:15:45.447Z,0.04
2019-02-18T22:18:18.102Z,0.06
2019-02-18T22:20:52.650Z,0.04
2019-02-18T22:23:24.064Z,0.04
2019-02-18T22:25:59.642Z,0.02
2019-02-18T22:28:31.389Z,0.02
2019-02-18T22:31:01.835Z,0.01
2019-02-18T22:33:35.073Z,0.01
2019-02-18T22:36:05.347Z,-0.02
2019-02-18T22:38:35.614Z,-0.03
2019-02-18T22:41:07.628Z,-0.05
2019-02-18T22:43:41.227Z,-0.06
2019-02-18T22:46:13.996Z,-0.09
2019-02-18T22:48:45.977Z,-0.09
2019-02-18T22:51:19.907Z,-0.09
2019-02-18T22:53:53.785Z,-0.18
2019-02-18T22:56:28.581Z,-0.29
2019-02-18T22:59:02.681Z,-0.24
2019-02-18T23:01:42.575Z,-0.23
2019-02-18T23:04:15.133Z,-0.23
2019-02-18T23:06:45.496Z,-0.27
2019-02-18T23:09:16.038Z,-0.31
2019-02-18T23:11:46.302Z,-0.26
2019-02-18T23:14:16.578Z,-0.30
2019-02-18T23:16:47.337Z,-0.33
2019-02-18T23:19:17.598Z,-0.36
2019-02-18T23:21:47.864Z,-0.32
2019-02-18T23:24:18.124Z,-0.34
2019-02-18T23:26:48.460Z,-0.31
2019-02-18T23:29:18.723Z,-0.30
2019-02-18T23:31:49.256Z,-0.29
2019-02-18T23:34:19.520Z,-0.30
2019-02-18T23:36:49.809Z,-0.32
2019-02-18T23:39:20.053Z,-0.32
2019-02-18T23:41:50.328Z,-0.33
2019-02-18T23:44:20.597Z,-0.34
2019-02-18T23:46:50.874Z,-0.38
2019-02-18T23:49:21.131Z,-0.43
2019-02-18T23:51:51.416Z,-0.46
2019-02-18T23:54:21.845Z,-0.49
2019-02-18T23:56:52.123Z,-0.50
2019-02-18T23:59:22.389Z,-0.60
